sensor_id;sensor_type;location;lat;lon;timestamp;P1;durP1;ratioP1;P2;durP2;ratioP2
8094;SDS011;4090;49.270;8.696;2023-12-20T00:02:11;9.57;;;5.63;;
8094;SDS011;4090;49.270;8.696;2023-12-20T00:04:53;9.15;;;5.28;;
8094;SDS011;4090;49.270;8.696;2023-12-20T00:07:36;13.23;;;6.05;;
8094;SDS011;4090;49.270;8.696;2023-12-20T00:10:18;11.82;;;5.47;;
8094;SDS011;4090;49.270;8.696;2023-12-20T00:13:00;10.77;;;5.85;;
8094;SDS011;4090;49.270;8.696;2023-12-20T00:15:42;11.48;;;6.20;;
8094;SDS011;4090;49.270;8.696;2023-12-20T00:18:24;10.35;;;5.95;;
8094;SDS011;4090;49.270;8.696;2023-12-20T00:21:05;8.32;;;4.95;;
8094;SDS011;4090;49.270;8.696;2023-12-20T00:23:49;12.15;;;5.45;;
8094;SDS011;4090;49.270;8.696;2023-12-20T00:26:30;12.40;;;5.97;;
8094;SDS011;4090;49.270;8.696;2023-12-20T00:29:12;13.50;;;6.25;;
8094;SDS011;4090;49.270;8.696;2023-12-20T00:31:54;12.27;;;5.78;;
8094;SDS011;4090;49.270;8.696;2023-12-20T00:34:36;9.85;;;5.30;;
8094;SDS011;4090;49.270;8.696;2023-12-20T00:37:18;12.05;;;5.22;;
8094;SDS011;4090;49.270;8.696;2023-12-20T00:40:01;12.10;;;5.50;;
8094;SDS011;4090;49.270;8.696;2023-12-20T00:42:43;7.55;;;4.63;;
8094;SDS011;4090;49.270;8.696;2023-12-20T00:45:27;11.27;;;5.15;;
8094;SDS011;4090;49.270;8.696;2023-12-20T00:48:09;11.30;;;5.53;;
8094;SDS011;4090;49.270;8.696;2023-12-20T00:50:51;9.57;;;5.18;;
8094;SDS011;4090;49.270;8.696;2023-12-20T00:53:32;12.27;;;5.72;;
8094;SDS011;4090;49.270;8.696;2023-12-20T00:56:16;10.27;;;5.50;;
8094;SDS011;4090;49.270;8.696;2023-12-20T00:58:57;12.00;;;5.53;;
8094;SDS011;4090;49.270;8.696;2023-12-20T01:01:39;11.05;;;5.50;;
8094;SDS011;4090;49.270;8.696;2023-12-20T01:04:22;11.80;;;5.80;;
8094;SDS011;4090;49.270;8.696;2023-12-20T01:07:04;10.10;;;5.78;;
8094;SDS011;4090;49.270;8.696;2023-12-20T01:09:45;9.82;;;5.65;;
8094;SDS011;4090;49.270;8.696;2023-12-20T01:12:29;9.52;;;5.47;;
8094;SDS011;4090;49.270;8.696;2023-12-20T01:15:11;11.00;;;5.57;;
8094;SDS011;4090;49.270;8.696;2023-12-20T01:17:52;10.85;;;5.78;;
8094;SDS011;4090;49.270;8.696;2023-12-20T01:20:37;10.85;;;5.40;;
8094;SDS011;4090;49.270;8.696;2023-12-20T01:23:18;9.60;;;5.25;;
8094;SDS011;4090;49.270;8.696;2023-12-20T01:26:00;11.80;;;6.00;;
8094;SDS011;4090;49.270;8.696;2023-12-20T01:28:44;11.70;;;5.43;;
8094;SDS011;4090;49.270;8.696;2023-12-20T01:31:26;10.95;;;5.60;;
8094;SDS011;4090;49.270;8.696;2023-12-20T01:34:08;10.68;;;5.45;;
8094;SDS011;4090;49.270;8.696;2023-12-20T01:36:50;7.75;;;4.72;;
8094;SDS011;4090;49.270;8.696;2023-12-20T01:39:32;9.75;;;5.07;;
8094;SDS011;4090;49.270;8.696;2023-12-20T01:42:14;8.07;;;4.55;;
8094;SDS011;4090;49.270;8.696;2023-12-20T01:44:57;8.35;;;4.78;;
8094;SDS011;4090;49.270;8.696;2023-12-20T01:47:39;10.15;;;5.28;;
8094;SDS011;4090;49.270;8.696;2023-12-20T01:50:21;7.43;;;4.93;;
8094;SDS011;4090;49.270;8.696;2023-12-20T01:53:03;7.93;;;4.70;;
8094;SDS011;4090;49.270;8.696;2023-12-20T01:55:46;9.20;;;5.35;;
8094;SDS011;4090;49.270;8.696;2023-12-20T01:58:30;6.57;;;4.40;;
8094;SDS011;4090;49.270;8.696;2023-12-20T02:01:13;9.40;;;4.80;;
8094;SDS011;4090;49.270;8.696;2023-12-20T02:03:56;7.88;;;4.35;;
8094;SDS011;4090;49.270;8.696;2023-12-20T02:06:38;7.40;;;4.20;;
8094;SDS011;4090;49.270;8.696;2023-12-20T02:09:21;6.57;;;4.38;;
8094;SDS011;4090;49.270;8.696;2023-12-20T02:12:04;7.38;;;4.68;;
8094;SDS011;4090;49.270;8.696;2023-12-20T02:14:46;8.27;;;4.63;;
8094;SDS011;4090;49.270;8.696;2023-12-20T02:17:29;6.25;;;4.00;;
8094;SDS011;4090;49.270;8.696;2023-12-20T02:20:12;7.60;;;4.00;;
8094;SDS011;4090;49.270;8.696;2023-12-20T02:22:55;6.97;;;4.13;;
8094;SDS011;4090;49.270;8.696;2023-12-20T02:25:37;7.75;;;4.40;;
8094;SDS011;4090;49.270;8.696;2023-12-20T02:28:19;7.00;;;4.25;;
8094;SDS011;4090;49.270;8.696;2023-12-20T02:31:03;6.65;;;4.20;;
8094;SDS011;4090;49.270;8.696;2023-12-20T02:33:44;6.05;;;3.65;;
8094;SDS011;4090;49.270;8.696;2023-12-20T02:36:26;6.85;;;3.75;;
8094;SDS011;4090;49.270;8.696;2023-12-20T02:39:09;8.90;;;3.97;;
8094;SDS011;4090;49.270;8.696;2023-12-20T02:41:51;7.18;;;3.80;;
8094;SDS011;4090;49.270;8.696;2023-12-20T02:44:33;5.93;;;3.67;;
8094;SDS011;4090;49.270;8.696;2023-12-20T02:47:15;7.03;;;4.05;;
8094;SDS011;4090;49.270;8.696;2023-12-20T02:49:57;7.18;;;3.95;;
8094;SDS011;4090;49.270;8.696;2023-12-20T02:52:38;6.97;;;3.92;;
8094;SDS011;4090;49.270;8.696;2023-12-20T02:55:22;5.28;;;3.85;;
8094;SDS011;4090;49.270;8.696;2023-12-20T02:58:03;8.57;;;3.67;;
8094;SDS011;4090;49.270;8.696;2023-12-20T03:00:45;5.18;;;3.53;;
8094;SDS011;4090;49.270;8.696;2023-12-20T03:03:27;6.30;;;3.67;;
8094;SDS011;4090;49.270;8.696;2023-12-20T03:06:09;6.45;;;3.65;;
8094;SDS011;4090;49.270;8.696;2023-12-20T03:08:51;6.55;;;3.70;;
8094;SDS011;4090;49.270;8.696;2023-12-20T03:11:34;7.03;;;4.20;;
8094;SDS011;4090;49.270;8.696;2023-12-20T03:14:16;7.18;;;4.13;;
8094;SDS011;4090;49.270;8.696;2023-12-20T03:16:58;6.07;;;3.72;;
8094;SDS011;4090;49.270;8.696;2023-12-20T03:19:39;7.45;;;4.15;;
8094;SDS011;4090;49.270;8.696;2023-12-20T03:22:21;6.78;;;3.53;;
8094;SDS011;4090;49.270;8.696;2023-12-20T03:25:03;7.53;;;3.78;;
8094;SDS011;4090;49.270;8.696;2023-12-20T03:27:47;6.82;;;3.88;;
8094;SDS011;4090;49.270;8.696;2023-12-20T03:30:28;5.90;;;3.55;;
8094;SDS011;4090;49.270;8.696;2023-12-20T03:33:10;6.43;;;4.00;;
8094;SDS011;4090;49.270;8.696;2023-12-20T03:35:52;5.95;;;3.85;;
8094;SDS011;4090;49.270;8.696;2023-12-20T03:38:34;5.78;;;3.42;;
8094;SDS011;4090;49.270;8.696;2023-12-20T03:41:16;7.20;;;4.35;;
8094;SDS011;4090;49.270;8.696;2023-12-20T03:43:59;6.13;;;3.70;;
8094;SDS011;4090;49.270;8.696;2023-12-20T03:46:41;6.05;;;3.85;;
8094;SDS011;4090;49.270;8.696;2023-12-20T03:49:22;5.78;;;3.50;;
8094;SDS011;4090;49.270;8.696;2023-12-20T03:52:04;5.22;;;3.47;;
8094;SDS011;4090;49.270;8.696;2023-12-20T03:54:46;7.45;;;3.95;;
8094;SDS011;4090;49.270;8.696;2023-12-20T03:57:28;6.00;;;3.53;;
8094;SDS011;4090;49.270;8.696;2023-12-20T04:00:12;6.40;;;3.47;;
8094;SDS011;4090;49.270;8.696;2023-12-20T04:02:54;6.25;;;3.50;;
8094;SDS011;4090;49.270;8.696;2023-12-20T04:05:36;6.32;;;3.63;;
8094;SDS011;4090;49.270;8.696;2023-12-20T04:08:17;6.35;;;3.63;;
8094;SDS011;4090;49.270;8.696;2023-12-20T04:10:59;5.18;;;3.53;;
8094;SDS011;4090;49.270;8.696;2023-12-20T04:13:41;4.32;;;2.92;;
8094;SDS011;4090;49.270;8.696;2023-12-20T04:16:24;7.60;;;3.65;;
8094;SDS011;4090;49.270;8.696;2023-12-20T04:19:06;5.43;;;3.35;;
8094;SDS011;4090;49.270;8.696;2023-12-20T04:21:48;5.45;;;3.17;;
8094;SDS011;4090;49.270;8.696;2023-12-20T04:24:30;4.80;;;3.20;;
8094;SDS011;4090;49.270;8.696;2023-12-20T04:27:12;5.35;;;3.20;;
8094;SDS011;4090;49.270;8.696;2023-12-20T04:29:54;5.32;;;3.38;;
8094;SDS011;4090;49.270;8.696;2023-12-20T04:32:37;7.20;;;3.20;;
8094;SDS011;4090;49.270;8.696;2023-12-20T04:35:19;4.55;;;2.90;;
8094;SDS011;4090;49.270;8.696;2023-12-20T04:38:01;4.43;;;3.10;;
8094;SDS011;4090;49.270;8.696;2023-12-20T04:40:43;5.25;;;3.08;;
8094;SDS011;4090;49.270;8.696;2023-12-20T04:43:25;5.40;;;3.25;;
8094;SDS011;4090;49.270;8.696;2023-12-20T04:46:06;4.20;;;3.05;;
8094;SDS011;4090;49.270;8.696;2023-12-20T04:48:50;5.90;;;3.78;;
8094;SDS011;4090;49.270;8.696;2023-12-20T04:51:32;6.20;;;3.78;;
8094;SDS011;4090;49.270;8.696;2023-12-20T04:54:14;4.50;;;3.17;;
8094;SDS011;4090;49.270;8.696;2023-12-20T04:56:56;7.55;;;3.33;;
8094;SDS011;4090;49.270;8.696;2023-12-20T04:59:38;5.47;;;3.55;;
8094;SDS011;4090;49.270;8.696;2023-12-20T05:02:21;6.00;;;3.47;;
8094;SDS011;4090;49.270;8.696;2023-12-20T05:05:04;4.65;;;3.00;;
8094;SDS011;4090;49.270;8.696;2023-12-20T05:07:46;6.28;;;3.08;;
8094;SDS011;4090;49.270;8.696;2023-12-20T05:10:28;5.32;;;3.08;;
8094;SDS011;4090;49.270;8.696;2023-12-20T05:13:10;5.25;;;3.22;;
8094;SDS011;4090;49.270;8.696;2023-12-20T05:15:52;3.53;;;2.65;;
8094;SDS011;4090;49.270;8.696;2023-12-20T05:18:34;5.25;;;3.25;;
8094;SDS011;4090;49.270;8.696;2023-12-20T05:21:17;4.10;;;2.67;;
8094;SDS011;4090;49.270;8.696;2023-12-20T05:23:59;5.80;;;2.65;;
8094;SDS011;4090;49.270;8.696;2023-12-20T05:26:41;4.00;;;2.88;;
8094;SDS011;4090;49.270;8.696;2023-12-20T05:29:23;6.07;;;2.90;;
8094;SDS011;4090;49.270;8.696;2023-12-20T05:32:05;5.13;;;2.65;;
8094;SDS011;4090;49.270;8.696;2023-12-20T05:34:47;3.03;;;2.47;;
8094;SDS011;4090;49.270;8.696;2023-12-20T05:37:30;4.40;;;2.50;;
8094;SDS011;4090;49.270;8.696;2023-12-20T05:40:12;4.38;;;2.75;;
8094;SDS011;4090;49.270;8.696;2023-12-20T05:42:54;2.90;;;2.50;;
8094;SDS011;4090;49.270;8.696;2023-12-20T05:45:36;4.63;;;2.53;;
8094;SDS011;4090;49.270;8.696;2023-12-20T05:48:18;3.08;;;2.38;;
8094;SDS011;4090;49.270;8.696;2023-12-20T05:50:59;4.13;;;2.78;;
8094;SDS011;4090;49.270;8.696;2023-12-20T05:53:43;3.60;;;2.72;;
8094;SDS011;4090;49.270;8.696;2023-12-20T05:56:25;4.03;;;2.72;;
8094;SDS011;4090;49.270;8.696;2023-12-20T05:59:07;6.10;;;3.60;;
8094;SDS011;4090;49.270;8.696;2023-12-20T06:01:49;5.28;;;3.42;;
8094;SDS011;4090;49.270;8.696;2023-12-20T06:04:31;5.53;;;3.00;;
8094;SDS011;4090;49.270;8.696;2023-12-20T06:07:13;4.00;;;3.00;;
8094;SDS011;4090;49.270;8.696;2023-12-20T06:09:57;4.97;;;3.03;;
8094;SDS011;4090;49.270;8.696;2023-12-20T06:12:39;6.97;;;3.80;;
8094;SDS011;4090;49.270;8.696;2023-12-20T06:15:21;5.25;;;3.38;;
8094;SDS011;4090;49.270;8.696;2023-12-20T06:18:03;5.90;;;3.80;;
8094;SDS011;4090;49.270;8.696;2023-12-20T06:20:45;6.75;;;2.67;;
8094;SDS011;4090;49.270;8.696;2023-12-20T06:23:27;5.03;;;3.40;;
8094;SDS011;4090;49.270;8.696;2023-12-20T06:26:11;4.75;;;3.08;;
8094;SDS011;4090;49.270;8.696;2023-12-20T06:28:52;4.80;;;3.00;;
8094;SDS011;4090;49.270;8.696;2023-12-20T06:31:35;3.92;;;2.67;;
8094;SDS011;4090;49.270;8.696;2023-12-20T06:34:17;6.18;;;3.25;;
8094;SDS011;4090;49.270;8.696;2023-12-20T06:36:59;4.60;;;2.75;;
8094;SDS011;4090;49.270;8.696;2023-12-20T06:39:41;3.45;;;2.53;;
8094;SDS011;4090;49.270;8.696;2023-12-20T06:42:24;3.40;;;2.60;;
8094;SDS011;4090;49.270;8.696;2023-12-20T06:45:06;3.90;;;2.80;;
8094;SDS011;4090;49.270;8.696;2023-12-20T06:47:48;4.85;;;2.80;;
8094;SDS011;4090;49.270;8.696;2023-12-20T06:50:30;4.43;;;2.80;;
8094;SDS011;4090;49.270;8.696;2023-12-20T06:53:11;3.97;;;2.97;;
8094;SDS011;4090;49.270;8.696;2023-12-20T06:55:53;8.90;;;3.42;;
8094;SDS011;4090;49.270;8.696;2023-12-20T06:58:37;5.00;;;3.38;;
8094;SDS011;4090;49.270;8.696;2023-12-20T07:01:19;4.57;;;2.80;;
8094;SDS011;4090;49.270;8.696;2023-12-20T07:04:01;4.70;;;3.22;;
8094;SDS011;4090;49.270;8.696;2023-12-20T07:06:43;5.03;;;3.45;;
8094;SDS011;4090;49.270;8.696;2023-12-20T07:09:25;5.45;;;3.90;;
8094;SDS011;4090;49.270;8.696;2023-12-20T07:12:07;5.95;;;4.38;;
8094;SDS011;4090;49.270;8.696;2023-12-20T07:14:50;5.95;;;4.25;;
8094;SDS011;4090;49.270;8.696;2023-12-20T07:17:32;5.22;;;3.90;;
8094;SDS011;4090;49.270;8.696;2023-12-20T07:20:14;8.00;;;4.32;;
8094;SDS011;4090;49.270;8.696;2023-12-20T07:22:56;5.40;;;3.78;;
8094;SDS011;4090;49.270;8.696;2023-12-20T07:25:38;5.75;;;3.70;;
8094;SDS011;4090;49.270;8.696;2023-12-20T07:28:20;7.25;;;4.00;;
8094;SDS011;4090;49.270;8.696;2023-12-20T07:31:03;5.78;;;4.22;;
8094;SDS011;4090;49.270;8.696;2023-12-20T07:33:45;4.63;;;3.72;;
8094;SDS011;4090;49.270;8.696;2023-12-20T07:36:26;5.13;;;3.85;;
8094;SDS011;4090;49.270;8.696;2023-12-20T07:39:08;6.25;;;4.00;;
8094;SDS011;4090;49.270;8.696;2023-12-20T07:41:50;4.85;;;3.38;;
8094;SDS011;4090;49.270;8.696;2023-12-20T07:44:33;6.78;;;3.47;;
8094;SDS011;4090;49.270;8.696;2023-12-20T07:47:17;5.30;;;3.50;;
8094;SDS011;4090;49.270;8.696;2023-12-20T07:50:01;5.78;;;4.05;;
8094;SDS011;4090;49.270;8.696;2023-12-20T07:52:44;6.57;;;4.22;;
8094;SDS011;4090;49.270;8.696;2023-12-20T07:55:26;5.57;;;3.85;;
8094;SDS011;4090;49.270;8.696;2023-12-20T07:58:07;5.88;;;3.40;;
8094;SDS011;4090;49.270;8.696;2023-12-20T08:00:49;5.57;;;3.85;;
8094;SDS011;4090;49.270;8.696;2023-12-20T08:03:33;5.40;;;3.47;;
8094;SDS011;4090;49.270;8.696;2023-12-20T08:06:14;4.55;;;3.33;;
8094;SDS011;4090;49.270;8.696;2023-12-20T08:08:57;5.40;;;3.67;;
8094;SDS011;4090;49.270;8.696;2023-12-20T08:11:39;5.72;;;3.53;;
8094;SDS011;4090;49.270;8.696;2023-12-20T08:14:21;6.13;;;3.80;;
8094;SDS011;4090;49.270;8.696;2023-12-20T08:17:03;7.28;;;3.33;;
8094;SDS011;4090;49.270;8.696;2023-12-20T08:19:46;7.63;;;3.38;;
8094;SDS011;4090;49.270;8.696;2023-12-20T08:22:28;6.38;;;3.22;;
8094;SDS011;4090;49.270;8.696;2023-12-20T08:25:10;4.47;;;3.50;;
8094;SDS011;4090;49.270;8.696;2023-12-20T08:27:52;6.93;;;3.40;;
8094;SDS011;4090;49.270;8.696;2023-12-20T08:30:33;4.60;;;3.17;;
8094;SDS011;4090;49.270;8.696;2023-12-20T08:33:15;6.90;;;3.05;;
8094;SDS011;4090;49.270;8.696;2023-12-20T08:35:59;5.07;;;2.88;;
8094;SDS011;4090;49.270;8.696;2023-12-20T08:38:40;4.28;;;2.80;;
8094;SDS011;4090;49.270;8.696;2023-12-20T08:41:22;8.85;;;3.03;;
8094;SDS011;4090;49.270;8.696;2023-12-20T08:44:04;6.90;;;3.17;;
8094;SDS011;4090;49.270;8.696;2023-12-20T08:46:46;4.40;;;2.85;;
8094;SDS011;4090;49.270;8.696;2023-12-20T08:49:28;4.65;;;2.90;;
8094;SDS011;4090;49.270;8.696;2023-12-20T08:52:11;4.95;;;3.20;;
8094;SDS011;4090;49.270;8.696;2023-12-20T08:54:53;6.18;;;3.13;;
8094;SDS011;4090;49.270;8.696;2023-12-20T08:57:35;5.28;;;2.97;;
8094;SDS011;4090;49.270;8.696;2023-12-20T09:00:17;4.10;;;2.97;;
8094;SDS011;4090;49.270;8.696;2023-12-20T09:03:01;4.07;;;2.80;;
8094;SDS011;4090;49.270;8.696;2023-12-20T09:05:43;4.38;;;2.65;;
8094;SDS011;4090;49.270;8.696;2023-12-20T09:08:26;5.07;;;2.85;;
8094;SDS011;4090;49.270;8.696;2023-12-20T09:11:08;5.28;;;2.72;;
8094;SDS011;4090;49.270;8.696;2023-12-20T09:13:50;3.38;;;2.33;;
8094;SDS011;4090;49.270;8.696;2023-12-20T09:16:32;5.15;;;2.33;;
8094;SDS011;4090;49.270;8.696;2023-12-20T09:19:13;4.07;;;2.10;;
8094;SDS011;4090;49.270;8.696;2023-12-20T09:21:55;7.22;;;2.22;;
8094;SDS011;4090;49.270;8.696;2023-12-20T09:24:39;2.65;;;1.80;;
8094;SDS011;4090;49.270;8.696;2023-12-20T09:27:20;5.28;;;2.08;;
8094;SDS011;4090;49.270;8.696;2023-12-20T09:30:02;3.72;;;1.83;;
8094;SDS011;4090;49.270;8.696;2023-12-20T09:32:46;9.27;;;1.92;;
8094;SDS011;4090;49.270;8.696;2023-12-20T09:35:28;6.68;;;2.03;;
8094;SDS011;4090;49.270;8.696;2023-12-20T09:38:10;4.43;;;1.75;;
8094;SDS011;4090;49.270;8.696;2023-12-20T09:40:54;9.43;;;1.92;;
8094;SDS011;4090;49.270;8.696;2023-12-20T09:43:37;9.10;;;2.25;;
8094;SDS011;4090;49.270;8.696;2023-12-20T09:46:19;3.72;;;2.08;;
8094;SDS011;4090;49.270;8.696;2023-12-20T09:49:04;5.35;;;2.63;;
8094;SDS011;4090;49.270;8.696;2023-12-20T09:51:47;4.30;;;2.00;;
8094;SDS011;4090;49.270;8.696;2023-12-20T09:54:31;5.32;;;1.65;;
8094;SDS011;4090;49.270;8.696;2023-12-20T09:57:14;4.03;;;1.90;;
8094;SDS011;4090;49.270;8.696;2023-12-20T09:59:56;5.43;;;1.75;;
8094;SDS011;4090;49.270;8.696;2023-12-20T10:02:38;3.20;;;1.90;;
8094;SDS011;4090;49.270;8.696;2023-12-20T10:05:26;8.57;;;1.95;;
8094;SDS011;4090;49.270;8.696;2023-12-20T10:08:09;9.57;;;1.98;;
8094;SDS011;4090;49.270;8.696;2023-12-20T10:10:51;3.60;;;2.03;;
8094;SDS011;4090;49.270;8.696;2023-12-20T10:13:34;3.00;;;1.83;;
8094;SDS011;4090;49.270;8.696;2023-12-20T10:16:24;2.65;;;1.50;;
8094;SDS011;4090;49.270;8.696;2023-12-20T10:19:06;8.98;;;1.90;;
8094;SDS011;4090;49.270;8.696;2023-12-20T10:21:48;4.13;;;1.60;;
8094;SDS011;4090;49.270;8.696;2023-12-20T10:24:29;5.80;;;1.70;;
8094;SDS011;4090;49.270;8.696;2023-12-20T10:27:12;3.78;;;1.92;;
8094;SDS011;4090;49.270;8.696;2023-12-20T10:29:55;4.03;;;1.65;;
8094;SDS011;4090;49.270;8.696;2023-12-20T10:32:39;5.82;;;1.90;;
8094;SDS011;4090;49.270;8.696;2023-12-20T10:35:22;3.97;;;1.60;;
8094;SDS011;4090;49.270;8.696;2023-12-20T10:38:04;5.00;;;1.75;;
8094;SDS011;4090;49.270;8.696;2023-12-20T10:40:47;4.85;;;1.80;;
8094;SDS011;4090;49.270;8.696;2023-12-20T10:43:30;5.20;;;1.52;;
8094;SDS011;4090;49.270;8.696;2023-12-20T10:46:15;4.53;;;1.75;;
8094;SDS011;4090;49.270;8.696;2023-12-20T10:48:57;5.32;;;1.70;;
8094;SDS011;4090;49.270;8.696;2023-12-20T10:51:39;6.40;;;1.80;;
8094;SDS011;4090;49.270;8.696;2023-12-20T10:54:21;6.13;;;1.60;;
8094;SDS011;4090;49.270;8.696;2023-12-20T10:57:03;3.67;;;1.67;;
8094;SDS011;4090;49.270;8.696;2023-12-20T10:59:47;8.18;;;2.03;;
8094;SDS011;4090;49.270;8.696;2023-12-20T11:02:36;5.57;;;1.65;;
8094;SDS011;4090;49.270;8.696;2023-12-20T11:05:27;3.60;;;1.70;;
8094;SDS011;4090;49.270;8.696;2023-12-20T11:08:16;5.45;;;1.65;;
8094;SDS011;4090;49.270;8.696;2023-12-20T11:11:05;17.23;;;6.32;;
8094;SDS011;4090;49.270;8.696;2023-12-20T11:13:54;12.00;;;2.80;;
8094;SDS011;4090;49.270;8.696;2023-12-20T11:16:40;6.43;;;2.00;;
8094;SDS011;4090;49.270;8.696;2023-12-20T11:19:23;5.85;;;1.70;;
8094;SDS011;4090;49.270;8.696;2023-12-20T11:22:05;6.20;;;1.85;;
8094;SDS011;4090;49.270;8.696;2023-12-20T11:24:47;7.00;;;1.60;;
8094;SDS011;4090;49.270;8.696;2023-12-20T11:27:30;3.50;;;1.60;;
8094;SDS011;4090;49.270;8.696;2023-12-20T11:30:13;2.85;;;1.77;;
8094;SDS011;4090;49.270;8.696;2023-12-20T11:32:57;7.82;;;2.30;;
8094;SDS011;4090;49.270;8.696;2023-12-20T11:35:40;6.85;;;1.92;;
8094;SDS011;4090;49.270;8.696;2023-12-20T11:38:22;6.35;;;1.90;;
8094;SDS011;4090;49.270;8.696;2023-12-20T11:41:05;6.13;;;2.10;;
8094;SDS011;4090;49.270;8.696;2023-12-20T11:43:47;5.95;;;2.10;;
8094;SDS011;4090;49.270;8.696;2023-12-20T11:46:29;4.93;;;1.80;;
8094;SDS011;4090;49.270;8.696;2023-12-20T11:49:13;6.15;;;2.03;;
8094;SDS011;4090;49.270;8.696;2023-12-20T11:51:56;6.55;;;2.25;;
8094;SDS011;4090;49.270;8.696;2023-12-20T11:54:40;4.28;;;1.75;;
8094;SDS011;4090;49.270;8.696;2023-12-20T11:57:22;6.78;;;2.05;;
8094;SDS011;4090;49.270;8.696;2023-12-20T12:00:04;9.43;;;2.30;;
8094;SDS011;4090;49.270;8.696;2023-12-20T12:02:57;4.90;;;2.17;;
8094;SDS011;4090;49.270;8.696;2023-12-20T12:05:39;8.30;;;2.30;;
8094;SDS011;4090;49.270;8.696;2023-12-20T12:08:22;3.03;;;1.90;;
8094;SDS011;4090;49.270;8.696;2023-12-20T12:11:04;6.03;;;1.98;;
8094;SDS011;4090;49.270;8.696;2023-12-20T12:13:46;5.05;;;2.08;;
8094;SDS011;4090;49.270;8.696;2023-12-20T12:16:28;9.32;;;2.20;;
8094;SDS011;4090;49.270;8.696;2023-12-20T12:19:19;5.10;;;2.20;;
8094;SDS011;4090;49.270;8.696;2023-12-20T12:22:05;5.10;;;2.75;;
8094;SDS011;4090;49.270;8.696;2023-12-20T12:24:51;4.45;;;2.20;;
8094;SDS011;4090;49.270;8.696;2023-12-20T12:27:34;6.72;;;2.13;;
8094;SDS011;4090;49.270;8.696;2023-12-20T12:30:16;6.65;;;2.20;;
8094;SDS011;4090;49.270;8.696;2023-12-20T12:32:58;4.03;;;1.80;;
8094;SDS011;4090;49.270;8.696;2023-12-20T12:35:40;6.97;;;2.38;;
8094;SDS011;4090;49.270;8.696;2023-12-20T12:38:22;6.22;;;1.88;;
8094;SDS011;4090;49.270;8.696;2023-12-20T12:41:06;8.20;;;2.20;;
8094;SDS011;4090;49.270;8.696;2023-12-20T12:43:48;4.88;;;2.05;;
8094;SDS011;4090;49.270;8.696;2023-12-20T12:46:30;4.75;;;2.38;;
8094;SDS011;4090;49.270;8.696;2023-12-20T12:49:13;4.65;;;2.10;;
8094;SDS011;4090;49.270;8.696;2023-12-20T12:51:55;8.35;;;2.47;;
8094;SDS011;4090;49.270;8.696;2023-12-20T12:54:38;5.10;;;2.08;;
8094;SDS011;4090;49.270;8.696;2023-12-20T12:57:23;5.10;;;2.10;;
8094;SDS011;4090;49.270;8.696;2023-12-20T13:00:05;6.32;;;2.22;;
8094;SDS011;4090;49.270;8.696;2023-12-20T13:02:49;5.53;;;2.45;;
8094;SDS011;4090;49.270;8.696;2023-12-20T13:05:31;6.53;;;2.40;;
8094;SDS011;4090;49.270;8.696;2023-12-20T13:08:13;6.00;;;2.50;;
8094;SDS011;4090;49.270;8.696;2023-12-20T13:10:55;8.75;;;2.28;;
8094;SDS011;4090;49.270;8.696;2023-12-20T13:13:42;5.15;;;2.58;;
8094;SDS011;4090;49.270;8.696;2023-12-20T13:16:23;4.30;;;2.40;;
8094;SDS011;4090;49.270;8.696;2023-12-20T13:19:05;5.40;;;2.20;;
8094;SDS011;4090;49.270;8.696;2023-12-20T13:21:47;5.85;;;2.80;;
8094;SDS011;4090;49.270;8.696;2023-12-20T13:24:29;9.85;;;2.70;;
8094;SDS011;4090;49.270;8.696;2023-12-20T13:27:12;5.50;;;1.88;;
8094;SDS011;4090;49.270;8.696;2023-12-20T13:29:55;9.85;;;2.80;;
8094;SDS011;4090;49.270;8.696;2023-12-20T13:32:37;6.07;;;2.10;;
8094;SDS011;4090;49.270;8.696;2023-12-20T13:35:20;9.60;;;2.00;;
8094;SDS011;4090;49.270;8.696;2023-12-20T13:38:01;6.38;;;2.22;;
8094;SDS011;4090;49.270;8.696;2023-12-20T13:40:43;9.07;;;2.70;;
8094;SDS011;4090;49.270;8.696;2023-12-20T13:43:25;7.50;;;2.33;;
8094;SDS011;4090;49.270;8.696;2023-12-20T13:46:08;5.75;;;2.10;;
8094;SDS011;4090;49.270;8.696;2023-12-20T13:48:50;6.97;;;2.28;;
8094;SDS011;4090;49.270;8.696;2023-12-20T13:51:32;5.65;;;2.20;;
8094;SDS011;4090;49.270;8.696;2023-12-20T13:54:14;5.68;;;2.28;;
8094;SDS011;4090;49.270;8.696;2023-12-20T13:56:59;9.07;;;2.40;;
8094;SDS011;4090;49.270;8.696;2023-12-20T13:59:41;10.38;;;2.50;;
8094;SDS011;4090;49.270;8.696;2023-12-20T14:02:24;8.68;;;2.40;;
8094;SDS011;4090;49.270;8.696;2023-12-20T14:05:07;8.68;;;2.05;;
8094;SDS011;4090;49.270;8.696;2023-12-20T14:07:49;6.10;;;2.38;;
8094;SDS011;4090;49.270;8.696;2023-12-20T14:10:31;7.88;;;1.98;;
8094;SDS011;4090;49.270;8.696;2023-12-20T14:13:13;8.57;;;2.10;;
8094;SDS011;4090;49.270;8.696;2023-12-20T14:15:55;3.72;;;1.85;;
8094;SDS011;4090;49.270;8.696;2023-12-20T14:18:38;8.27;;;2.05;;
8094;SDS011;4090;49.270;8.696;2023-12-20T14:21:20;8.80;;;2.35;;
8094;SDS011;4090;49.270;8.696;2023-12-20T14:24:04;11.18;;;2.78;;
8094;SDS011;4090;49.270;8.696;2023-12-20T14:26:46;5.25;;;2.45;;
8094;SDS011;4090;49.270;8.696;2023-12-20T14:29:28;10.75;;;2.22;;
8094;SDS011;4090;49.270;8.696;2023-12-20T14:32:10;4.47;;;2.03;;
8094;SDS011;4090;49.270;8.696;2023-12-20T14:34:55;10.85;;;2.70;;
8094;SDS011;4090;49.270;8.696;2023-12-20T14:37:37;8.55;;;2.40;;
8094;SDS011;4090;49.270;8.696;2023-12-20T14:40:20;5.43;;;2.30;;
8094;SDS011;4090;49.270;8.696;2023-12-20T14:43:02;8.13;;;2.00;;
8094;SDS011;4090;49.270;8.696;2023-12-20T14:45:44;5.60;;;1.98;;
8094;SDS011;4090;49.270;8.696;2023-12-20T14:48:26;8.77;;;2.38;;
8094;SDS011;4090;49.270;8.696;2023-12-20T14:51:09;7.40;;;2.53;;
8094;SDS011;4090;49.270;8.696;2023-12-20T14:53:51;8.98;;;2.47;;
8094;SDS011;4090;49.270;8.696;2023-12-20T14:56:33;8.73;;;2.30;;
8094;SDS011;4090;49.270;8.696;2023-12-20T14:59:15;7.03;;;2.30;;
8094;SDS011;4090;49.270;8.696;2023-12-20T15:01:57;5.47;;;1.92;;
8094;SDS011;4090;49.270;8.696;2023-12-20T15:04:39;5.47;;;1.95;;
8094;SDS011;4090;49.270;8.696;2023-12-20T15:07:22;8.05;;;2.35;;
8094;SDS011;4090;49.270;8.696;2023-12-20T15:10:04;4.88;;;1.80;;
8094;SDS011;4090;49.270;8.696;2023-12-20T15:12:46;5.53;;;2.03;;
8094;SDS011;4090;49.270;8.696;2023-12-20T15:15:28;5.25;;;2.20;;
8094;SDS011;4090;49.270;8.696;2023-12-20T15:18:10;5.78;;;1.88;;
8094;SDS011;4090;49.270;8.696;2023-12-20T15:20:51;5.18;;;2.45;;
8094;SDS011;4090;49.270;8.696;2023-12-20T15:23:35;6.22;;;2.13;;
8094;SDS011;4090;49.270;8.696;2023-12-20T15:26:17;10.40;;;2.25;;
8094;SDS011;4090;49.270;8.696;2023-12-20T15:28:58;10.10;;;3.13;;
8094;SDS011;4090;49.270;8.696;2023-12-20T15:31:42;7.07;;;2.28;;
8094;SDS011;4090;49.270;8.696;2023-12-20T15:34:24;9.75;;;2.40;;
8094;SDS011;4090;49.270;8.696;2023-12-20T15:37:06;8.10;;;2.30;;
8094;SDS011;4090;49.270;8.696;2023-12-20T15:39:49;8.50;;;1.90;;
8094;SDS011;4090;49.270;8.696;2023-12-20T15:42:31;7.25;;;2.78;;
8094;SDS011;4090;49.270;8.696;2023-12-20T15:45:16;9.45;;;2.20;;
8094;SDS011;4090;49.270;8.696;2023-12-20T15:47:59;5.20;;;2.28;;
8094;SDS011;4090;49.270;8.696;2023-12-20T15:50:40;12.23;;;2.38;;
8094;SDS011;4090;49.270;8.696;2023-12-20T15:53:22;3.90;;;1.80;;
8094;SDS011;4090;49.270;8.696;2023-12-20T15:56:06;11.85;;;2.50;;
8094;SDS011;4090;49.270;8.696;2023-12-20T15:58:48;8.63;;;2.15;;
8094;SDS011;4090;49.270;8.696;2023-12-20T16:01:32;10.52;;;1.70;;
8094;SDS011;4090;49.270;8.696;2023-12-20T16:04:15;4.47;;;1.85;;
8094;SDS011;4090;49.270;8.696;2023-12-20T16:06:57;4.38;;;1.75;;
8094;SDS011;4090;49.270;8.696;2023-12-20T16:09:39;6.07;;;2.00;;
8094;SDS011;4090;49.270;8.696;2023-12-20T16:12:22;4.57;;;1.77;;
8094;SDS011;4090;49.270;8.696;2023-12-20T16:15:05;7.18;;;2.00;;
8094;SDS011;4090;49.270;8.696;2023-12-20T16:17:48;7.13;;;1.90;;
8094;SDS011;4090;49.270;8.696;2023-12-20T16:20:30;7.88;;;2.40;;
8094;SDS011;4090;49.270;8.696;2023-12-20T16:23:12;3.38;;;1.52;;
8094;SDS011;4090;49.270;8.696;2023-12-20T16:25:54;11.23;;;2.25;;
8094;SDS011;4090;49.270;8.696;2023-12-20T16:28:37;8.55;;;2.05;;
8094;SDS011;4090;49.270;8.696;2023-12-20T16:31:19;6.63;;;2.10;;
8094;SDS011;4090;49.270;8.696;2023-12-20T16:34:00;4.70;;;1.60;;
8094;SDS011;4090;49.270;8.696;2023-12-20T16:36:49;11.18;;;2.42;;
8094;SDS011;4090;49.270;8.696;2023-12-20T16:39:32;4.03;;;1.83;;
8094;SDS011;4090;49.270;8.696;2023-12-20T16:42:14;6.88;;;2.17;;
8094;SDS011;4090;49.270;8.696;2023-12-20T16:44:57;7.20;;;2.25;;
8094;SDS011;4090;49.270;8.696;2023-12-20T16:47:39;15.75;;;2.30;;
8094;SDS011;4090;49.270;8.696;2023-12-20T16:50:21;13.10;;;2.60;;